LFBE/EGC METAR and TAF weather

Enter ICAO airport designator
Station Type Date Time Source
LFBE METAR 2020/09/21 06:30 UTC NOAA

LFBE 210630Z AUTO 27003KT 250V310 9999 OVC007 18/17 Q1016 TEMPO 3000 -RA BR OVC004


Station Type Date Time Source
LFBE Decoded METAR 2020/09/21 06:30 UTC NOAA

Bergerac, France (LFBE) 44-49N 000-31E 52M
Sep 21, 2020 - 02:30 AM EDT / 2020.09.21 0630 UTC
Wind: from the W (270 degrees) at 3 MPH (3 KT) (direction variable):0
Visibility: greater than 7 mile(s):0
Sky conditions: overcast
Temperature: 64 F (18 C)
Dew Point: 62 F (17 C)
Relative Humidity: 93%
Pressure (altimeter): 30.00 in. Hg (1016 hPa)
ob: LFBE 210630Z AUTO 27003KT 250V310 9999 OVC007 18/17 Q1016 TEMPO 3000 -RA BR OVC004
cycle: 6

Station Type Date Time Source
LFBE TAF 2020/09/21 06:21 UTC NOAA

TAF LFBE 210500Z 2106/2206 27005KT 9999 BKN010
TEMPO 2106/2109 3000 -RA BR OVC004
BECMG 2110/2112 BKN025 PROB40
TEMPO 2112/2124 27015KT 3000 SHRA BKN013TCU
BECMG 2200/2202 BKN005
TEMPO 2202/2206 3000 RA

Example: see airport list